createdAt,value
2019-02-26T00:01:46.061Z,9.33
2019-02-26T00:04:24.974Z,10.25
2019-02-26T00:07:04.706Z,10.63
2019-02-26T00:09:44.903Z,10.88
2019-02-26T00:12:28.618Z,10.32
2019-02-26T00:15:07.847Z,11.00
2019-02-26T00:17:49.036Z,10.23
2019-02-26T00:20:29.635Z,10.30
2019-02-26T00:23:10.532Z,10.13
2019-02-26T00:25:52.579Z,9.30
2019-02-26T00:28:34.123Z,9.57
2019-02-26T00:31:13.797Z,11.25
2019-02-26T00:33:53.000Z,11.43
2019-02-26T00:36:33.647Z,12.30
2019-02-26T00:39:15.614Z,13.10
2019-02-26T00:41:58.049Z,13.70
2019-02-26T00:44:41.555Z,13.60
2019-02-26T00:47:25.092Z,14.28
2019-02-26T00:50:16.697Z,13.32
2019-02-26T00:52:59.399Z,14.50
2019-02-26T00:55:39.687Z,14.25
2019-02-26T00:58:19.287Z,13.20
2019-02-26T01:01:01.916Z,12.53
2019-02-26T01:03:43.094Z,11.48
2019-02-26T01:06:24.558Z,11.40
2019-02-26T01:09:05.497Z,9.08
2019-02-26T01:11:45.182Z,9.13
2019-02-26T01:14:24.826Z,9.73
2019-02-26T01:17:04.173Z,8.83
2019-02-26T01:19:43.438Z,8.88
2019-02-26T01:22:22.758Z,9.25
2019-02-26T01:25:10.105Z,8.35
2019-02-26T01:27:51.112Z,9.40
2019-02-26T01:30:35.596Z,8.65
2019-02-26T01:33:12.684Z,8.35
2019-02-26T01:35:52.837Z,8.55
2019-02-26T01:38:39.494Z,8.38
2019-02-26T01:41:23.239Z,8.78
2019-02-26T01:44:02.354Z,8.60
2019-02-26T01:46:41.679Z,8.53
2019-02-26T01:49:21.628Z,8.48
2019-02-26T01:52:01.366Z,7.80
2019-02-26T01:54:41.279Z,8.30
2019-02-26T01:57:21.829Z,8.53
2019-02-26T02:00:01.149Z,8.55
2019-02-26T02:02:42.479Z,8.50
2019-02-26T02:05:23.475Z,9.15
2019-02-26T02:08:02.479Z,9.08
2019-02-26T02:10:42.107Z,9.58
2019-02-26T02:13:25.950Z,9.38
2019-02-26T02:16:04.353Z,9.15
2019-02-26T02:18:51.369Z,10.05
2019-02-26T02:21:33.433Z,8.98
2019-02-26T02:24:15.024Z,9.20
2019-02-26T02:29:43.823Z,9.00
2019-02-26T02:32:24.127Z,8.90
2019-02-26T02:35:06.709Z,9.00
2019-02-26T02:37:44.797Z,9.85
2019-02-26T02:40:28.451Z,10.78
2019-02-26T02:43:10.043Z,10.20
2019-02-26T02:45:49.970Z,10.20
2019-02-26T02:48:37.906Z,9.65
2019-02-26T02:51:17.189Z,10.08
2019-02-26T02:53:59.344Z,10.90
2019-02-26T02:56:41.778Z,10.20
2019-02-26T02:59:21.301Z,10.18
2019-02-26T03:02:00.995Z,10.48
2019-02-26T03:04:42.897Z,9.78
2019-02-26T03:07:24.355Z,10.10
2019-02-26T03:12:48.655Z,9.23
2019-02-26T03:15:29.180Z,9.60
2019-02-26T03:18:09.890Z,9.73
2019-02-26T03:20:51.220Z,9.48
2019-02-26T03:23:31.408Z,9.73
2019-02-26T03:26:14.794Z,9.48
2019-02-26T03:28:53.291Z,10.00
2019-02-26T03:31:35.230Z,10.10
2019-02-26T03:34:21.798Z,9.85
2019-02-26T03:36:59.332Z,9.67
2019-02-26T03:39:38.900Z,8.60
2019-02-26T03:42:21.175Z,10.13
2019-02-26T03:45:02.920Z,9.23
2019-02-26T03:47:43.177Z,9.25
2019-02-26T03:50:26.297Z,8.55
2019-02-26T03:53:09.056Z,9.70
2019-02-26T03:55:45.202Z,9.93
2019-02-26T03:58:24.940Z,9.98
2019-02-26T04:01:07.298Z,9.15
2019-02-26T04:03:45.238Z,9.58
2019-02-26T04:06:24.513Z,9.50
2019-02-26T04:09:08.333Z,9.00
2019-02-26T04:11:50.179Z,9.15
2019-02-26T04:14:28.764Z,9.50
2019-02-26T04:17:09.157Z,9.58
2019-02-26T04:19:48.597Z,8.98
2019-02-26T04:22:40.192Z,9.58
2019-02-26T04:25:36.448Z,8.65
2019-02-26T04:28:39.344Z,9.35
2019-02-26T04:31:47.117Z,9.75
2019-02-26T04:34:39.863Z,10.25
2019-02-26T04:37:49.851Z,10.35
2019-02-26T04:41:09.527Z,10.82
2019-02-26T04:44:09.001Z,10.50
2019-02-26T04:47:11.581Z,11.80
2019-02-26T04:49:51.000Z,10.17
2019-02-26T04:52:32.418Z,11.10
2019-02-26T04:55:13.690Z,10.60
2019-02-26T04:57:54.045Z,11.12
2019-02-26T05:00:36.042Z,11.78
2019-02-26T05:03:15.086Z,11.70
2019-02-26T05:06:00.152Z,11.18
2019-02-26T05:08:40.334Z,11.30
2019-02-26T05:11:31.587Z,11.60
2019-02-26T05:14:03.134Z,10.90
2019-02-26T05:16:43.573Z,11.45
2019-02-26T05:19:25.708Z,11.30
2019-02-26T05:22:07.037Z,11.45
2019-02-26T05:24:50.170Z,11.85
2019-02-26T05:27:28.409Z,13.22
2019-02-26T05:30:09.854Z,14.03
2019-02-26T05:32:51.972Z,11.60
2019-02-26T05:35:32.939Z,12.33
2019-02-26T05:38:13.033Z,12.88
2019-02-26T05:40:57.156Z,13.28
2019-02-26T05:43:49.454Z,14.60
2019-02-26T05:46:27.484Z,13.45
2019-02-26T05:49:09.715Z,12.47
2019-02-26T05:51:53.328Z,12.82
2019-02-26T05:54:52.675Z,14.05
2019-02-26T05:57:34.244Z,12.10
2019-02-26T06:00:17.224Z,13.22
2019-02-26T06:05:31.803Z,12.05
2019-02-26T06:08:10.982Z,12.47
2019-02-26T06:10:51.485Z,13.93
2019-02-26T06:13:31.562Z,12.73
2019-02-26T06:16:11.208Z,12.10
2019-02-26T06:18:51.907Z,13.45
2019-02-26T06:21:31.133Z,14.50
2019-02-26T06:24:11.431Z,13.15
2019-02-26T06:26:51.552Z,13.83
2019-02-26T06:29:35.020Z,14.75
2019-02-26T06:32:16.920Z,14.75
2019-02-26T06:34:57.198Z,14.00
2019-02-26T06:37:37.884Z,14.35
2019-02-26T06:40:18.505Z,14.05
2019-02-26T06:42:57.957Z,14.15
2019-02-26T06:45:40.284Z,13.08
2019-02-26T06:48:25.049Z,13.98
2019-02-26T06:51:04.701Z,14.53
2019-02-26T06:53:47.142Z,13.28
2019-02-26T06:56:25.033Z,13.55
2019-02-26T06:59:12.317Z,13.30
2019-02-26T07:01:55.523Z,14.28
2019-02-26T07:04:32.535Z,15.40
2019-02-26T07:07:14.334Z,13.43
2019-02-26T07:09:52.270Z,15.43
2019-02-26T07:12:31.613Z,14.60
2019-02-26T07:15:12.653Z,14.15
2019-02-26T07:17:52.658Z,12.47
2019-02-26T07:20:39.489Z,13.85
2019-02-26T07:23:16.324Z,12.13
2019-02-26T07:25:56.265Z,11.53
2019-02-26T07:28:36.975Z,12.03
2019-02-26T07:31:16.265Z,11.03
2019-02-26T07:33:58.228Z,10.63
2019-02-26T07:36:41.091Z,11.05
2019-02-26T07:39:22.694Z,12.30
2019-02-26T07:42:02.858Z,11.57
2019-02-26T07:44:44.726Z,11.68
2019-02-26T07:47:26.436Z,13.00
2019-02-26T07:50:06.707Z,12.25
2019-02-26T07:52:52.235Z,12.47
2019-02-26T07:55:35.413Z,13.45
2019-02-26T07:58:18.023Z,11.60
2019-02-26T08:00:58.512Z,12.47
2019-02-26T08:03:38.191Z,11.43
2019-02-26T08:06:18.476Z,11.60
2019-02-26T08:08:57.924Z,11.75
2019-02-26T08:11:39.176Z,12.58
2019-02-26T08:14:20.827Z,10.88
2019-02-26T08:17:04.025Z,11.50
2019-02-26T08:19:46.382Z,10.95
2019-02-26T08:22:27.017Z,12.10
2019-02-26T08:25:07.202Z,11.63
2019-02-26T08:27:46.442Z,11.60
2019-02-26T08:30:26.223Z,10.95
2019-02-26T08:33:07.330Z,11.30
2019-02-26T08:35:48.879Z,10.55
2019-02-26T08:41:07.420Z,10.28
2019-02-26T08:43:49.095Z,11.08
2019-02-26T08:46:27.510Z,11.40
2019-02-26T08:49:08.726Z,12.10
2019-02-26T08:51:49.694Z,12.13
2019-02-26T08:54:30.783Z,11.38
2019-02-26T08:57:11.972Z,11.05
2019-02-26T08:59:54.457Z,12.18
2019-02-26T09:02:32.917Z,11.08
2019-02-26T09:05:14.658Z,11.80
2019-02-26T09:07:54.907Z,11.80
2019-02-26T09:10:34.017Z,11.60
2019-02-26T09:13:14.543Z,11.90
2019-02-26T09:15:55.648Z,12.18
2019-02-26T09:18:38.131Z,11.35
2019-02-26T09:21:18.090Z,11.12
2019-02-26T09:24:00.069Z,11.88
2019-02-26T09:26:39.991Z,11.95
2019-02-26T09:29:19.651Z,11.53
2019-02-26T09:32:01.203Z,11.50
2019-02-26T09:34:41.099Z,12.20
2019-02-26T09:37:21.008Z,12.10
2019-02-26T09:40:02.974Z,12.70
2019-02-26T09:42:43.845Z,11.48
2019-02-26T09:45:26.059Z,12.18
2019-02-26T09:48:05.127Z,12.53
2019-02-26T09:50:46.321Z,12.15
2019-02-26T09:53:28.027Z,11.95
2019-02-26T09:56:07.421Z,12.37
2019-02-26T09:58:50.867Z,12.18
2019-02-26T10:01:33.244Z,11.68
2019-02-26T10:04:13.053Z,13.00
2019-02-26T10:06:54.431Z,12.40
2019-02-26T10:09:36.834Z,12.05
2019-02-26T10:12:15.685Z,12.07
2019-02-26T10:14:59.635Z,11.97
2019-02-26T10:17:40.804Z,11.80
2019-02-26T10:20:23.288Z,11.28
2019-02-26T10:25:47.648Z,11.95
2019-02-26T10:28:26.939Z,11.65
2019-02-26T10:31:07.804Z,12.53
2019-02-26T10:33:48.940Z,12.88
2019-02-26T10:36:32.484Z,12.20
2019-02-26T10:39:12.349Z,12.73
2019-02-26T10:41:51.787Z,12.97
2019-02-26T10:44:31.255Z,12.53
2019-02-26T10:47:10.706Z,11.80
2019-02-26T10:49:51.877Z,12.80
2019-02-26T10:52:32.976Z,12.78
2019-02-26T10:55:21.924Z,12.15
2019-02-26T10:58:09.737Z,12.93
2019-02-26T11:00:50.633Z,12.53
2019-02-26T11:03:35.268Z,13.20
2019-02-26T11:06:15.895Z,14.00
2019-02-26T11:08:53.134Z,15.00
2019-02-26T11:14:16.463Z,13.50
2019-02-26T11:17:06.300Z,14.13
2019-02-26T11:19:46.666Z,13.72
2019-02-26T11:22:30.491Z,14.00
2019-02-26T11:25:13.348Z,15.15
2019-02-26T11:27:54.602Z,14.85
2019-02-26T11:30:33.754Z,15.03
2019-02-26T11:33:13.647Z,15.28
2019-02-26T11:36:02.862Z,14.75
2019-02-26T11:38:44.527Z,15.28
2019-02-26T11:44:10.290Z,16.02
2019-02-26T11:46:51.151Z,16.42
2019-02-26T17:39:30.656Z,11.70
2019-02-26T17:42:10.719Z,12.50
2019-02-26T17:44:51.239Z,11.93
2019-02-26T17:47:30.530Z,12.23
2019-02-26T17:50:12.032Z,12.78
2019-02-26T17:52:53.696Z,13.68
2019-02-26T17:55:38.584Z,11.80
2019-02-26T17:58:18.781Z,12.20
2019-02-26T18:01:00.580Z,12.23
2019-02-26T18:03:39.872Z,14.00
2019-02-26T18:06:20.078Z,11.68
2019-02-26T18:08:59.338Z,11.70
2019-02-26T18:11:41.114Z,11.48
2019-02-26T18:14:21.235Z,11.60
2019-02-26T18:17:01.724Z,11.12
2019-02-26T18:19:41.117Z,11.63
2019-02-26T18:22:21.760Z,11.83
2019-02-26T18:25:03.845Z,11.08
2019-02-26T18:27:43.181Z,11.30
2019-02-26T18:30:25.821Z,11.55
2019-02-26T18:33:05.230Z,12.13
2019-02-26T18:35:44.777Z,11.93
2019-02-26T18:38:24.703Z,12.13
2019-02-26T18:41:03.944Z,11.35
2019-02-26T18:43:44.798Z,11.43
2019-02-26T18:46:25.859Z,11.60
2019-02-26T18:49:06.681Z,11.05
2019-02-26T18:51:46.031Z,11.97
2019-02-26T18:54:25.244Z,11.60
2019-02-26T18:57:04.585Z,11.83
2019-02-26T18:59:43.894Z,11.55
2019-02-26T19:02:23.871Z,11.95
2019-02-26T19:05:06.875Z,11.50
2019-02-26T19:07:48.751Z,11.45
2019-02-26T19:10:28.454Z,13.13
2019-02-26T19:13:13.520Z,15.10
2019-02-26T19:15:52.714Z,15.25
2019-02-26T19:18:43.229Z,13.50
2019-02-26T19:21:23.371Z,13.65
2019-02-26T19:24:04.585Z,13.45
2019-02-26T19:26:47.356Z,13.22
2019-02-26T19:29:26.815Z,13.78
2019-02-26T19:32:06.259Z,12.53
2019-02-26T19:34:45.434Z,12.75
2019-02-26T19:37:27.829Z,12.70
2019-02-26T19:40:13.177Z,11.75
2019-02-26T19:42:53.434Z,12.28
2019-02-26T19:45:36.069Z,13.55
2019-02-26T19:48:15.396Z,12.47
2019-02-26T19:50:54.811Z,13.22
2019-02-26T19:53:37.100Z,11.75
2019-02-26T19:56:23.366Z,11.53
2019-02-26T19:59:00.545Z,12.33
2019-02-26T20:06:23.225Z,11.57
2019-02-26T20:09:59.228Z,11.55
2019-02-26T20:12:40.817Z,12.07
2019-02-26T20:15:27.503Z,13.22
2019-02-26T20:18:19.571Z,12.13
2019-02-26T20:20:50.630Z,13.22
2019-02-26T20:23:30.024Z,12.37
2019-02-26T20:26:10.832Z,13.08
2019-02-26T20:28:51.339Z,12.63
2019-02-26T20:31:30.572Z,12.07
2019-02-26T20:34:10.845Z,13.48
2019-02-26T20:36:51.163Z,12.78
2019-02-26T20:39:31.152Z,11.63
2019-02-26T20:42:10.543Z,11.75
2019-02-26T20:44:58.766Z,12.20
2019-02-26T20:47:32.299Z,11.57
2019-02-26T20:50:11.990Z,11.70
2019-02-26T20:52:51.819Z,11.68
2019-02-26T20:55:33.664Z,12.30
2019-02-26T20:58:12.780Z,12.40
2019-02-26T21:00:52.670Z,12.15
2019-02-26T21:03:33.038Z,12.23
2019-02-26T21:06:17.773Z,12.03
2019-02-26T21:08:56.793Z,11.70
2019-02-26T21:11:36.851Z,11.68
2019-02-26T21:14:16.362Z,11.12
2019-02-26T21:16:56.360Z,11.80
2019-02-26T21:19:39.527Z,12.05
2019-02-26T21:22:22.003Z,13.18
2019-02-26T21:25:02.026Z,12.60
2019-02-26T21:27:42.505Z,12.85
2019-02-26T21:30:23.462Z,12.37
2019-02-26T21:33:02.807Z,12.43
2019-02-26T21:35:41.953Z,12.70
2019-02-26T21:38:24.076Z,12.28
2019-02-26T21:41:03.961Z,11.85
2019-02-26T21:43:46.502Z,12.78
2019-02-26T21:49:04.310Z,13.00
2019-02-26T21:51:44.892Z,14.13
2019-02-26T21:54:24.821Z,15.30
2019-02-26T21:57:05.521Z,15.30
2019-02-26T21:59:50.050Z,14.75
2019-02-26T22:02:27.216Z,15.05
2019-02-26T22:05:08.114Z,30.60
2019-02-26T22:07:52.081Z,27.95
2019-02-26T22:10:29.404Z,12.98
2019-02-26T22:13:08.610Z,14.05
2019-02-26T22:15:50.548Z,13.03
2019-02-26T22:18:33.954Z,13.62
2019-02-26T22:21:11.962Z,13.05
2019-02-26T22:23:53.453Z,13.45
2019-02-26T22:26:32.771Z,13.48
2019-02-26T22:29:12.959Z,13.22
2019-02-26T22:31:52.371Z,14.03
2019-02-26T22:34:31.149Z,13.95
2019-02-26T22:37:10.391Z,13.32
2019-02-26T22:40:00.779Z,13.75
2019-02-26T22:42:41.321Z,12.95
2019-02-26T22:45:22.245Z,12.93
2019-02-26T22:48:02.776Z,12.37
2019-02-26T22:50:42.843Z,12.95
2019-02-26T22:53:23.536Z,13.68
2019-02-26T22:56:03.450Z,13.62
2019-02-26T22:58:42.298Z,14.53
2019-02-26T23:01:37.799Z,13.68
2019-02-26T23:04:19.820Z,19.50
2019-02-26T23:06:59.523Z,14.58
2019-02-26T23:09:46.858Z,14.23
2019-02-26T23:22:20.938Z,15.90
2019-02-26T23:25:01.744Z,15.00
2019-02-26T23:27:42.582Z,15.72
2019-02-26T23:30:22.234Z,14.30
2019-02-26T23:33:02.830Z,15.40
2019-02-26T23:35:42.306Z,14.40
2019-02-26T23:38:22.737Z,14.87
2019-02-26T23:41:02.792Z,13.18
2019-02-26T23:43:42.916Z,12.37
2019-02-26T23:46:23.346Z,13.35
2019-02-26T23:49:02.830Z,13.78
2019-02-26T23:51:42.581Z,14.18
2019-02-26T23:54:21.393Z,21.12
2019-02-26T23:57:01.451Z,14.90
2019-02-26T23:59:40.354Z,14.58
